Time;durP1;ratioP1;P1;durP2;ratioP2;P2;SDS_P1;SDS_P2;PMS_P1;PMS_P2;Temp;Humidity;BMP_temperature;BMP_pressure;BME280_temperature;BME280_humidity;BME280_pressure;Samples;Min_cycle;Max_cycle;Signal;HPM_P1;HPM_P2
2021/04/02 00:00:15;;;;;;;14.05;5.60;;;5.80;77.50;;;;;;5113759;28;20035;-35
2021/04/02 00:02:41;;;;;;;13.98;6.18;;;5.90;77.50;;;;;;5113907;28;20027;-36
2021/04/02 00:05:09;;;;;;;17.10;6.18;;;5.90;77.50;;;;;;5113831;28;20505;-36
2021/04/02 00:07:35;;;;;;;9.77;6.28;;;5.80;77.90;;;;;;5113510;28;20027;-35
2021/04/02 00:10:01;;;;;;;11.88;6.13;;;5.80;78.00;;;;;;5113439;28;20028;-35
2021/04/02 00:12:27;;;;;;;13.07;6.00;;;5.80;77.90;;;;;;5113740;28;20102;-35
2021/04/02 00:14:52;;;;;;;11.82;5.65;;;5.80;78.10;;;;;;5114446;28;20107;-35
2021/04/02 00:17:18;;;;;;;11.23;6.43;;;5.80;78.50;;;;;;5113423;28;20389;-35
2021/04/02 00:19:44;;;;;;;12.25;6.03;;;5.70;78.80;;;;;;5113464;28;20028;-35
2021/04/02 00:22:10;;;;;;;7.18;5.75;;;5.70;79.10;;;;;;5113473;28;20020;-36
2021/04/02 00:24:35;;;;;;;14.45;6.65;;;5.60;79.40;;;;;;5113626;28;20028;-36
2021/04/02 00:27:01;;;;;;;14.27;6.32;;;5.60;79.40;;;;;;5113395;28;20028;-35
2021/04/02 00:29:26;;;;;;;11.05;6.03;;;5.70;79.20;;;;;;5113630;28;20026;-35
2021/04/02 00:31:52;;;;;;;8.98;5.55;;;5.60;79.30;;;;;;5113473;28;20434;-35
2021/04/02 00:34:18;;;;;;;12.70;5.88;;;5.50;79.90;;;;;;5113314;28;20124;-35
2021/04/02 00:36:43;;;;;;;23.33;6.10;;;5.60;79.70;;;;;;5113517;28;20348;-35
2021/04/02 00:39:09;;;;;;;11.88;6.55;;;5.60;79.90;;;;;;5113341;28;20047;-36
2021/04/02 00:41:34;;;;;;;14.43;6.45;;;5.60;80.20;;;;;;5113348;28;20024;-35
2021/04/02 00:44:00;;;;;;;10.15;5.90;;;5.60;79.90;;;;;;5113353;28;20510;-35
2021/04/02 00:46:26;;;;;;;10.35;5.95;;;5.50;79.90;;;;;;5117221;28;20020;-35
2021/04/02 00:48:51;;;;;;;10.60;5.68;;;5.40;80.30;;;;;;5117038;28;20048;-35
2021/04/02 00:51:27;;;;;;;12.20;6.47;;;5.60;80.30;;;;;;5117415;28;20028;-35
2021/04/02 00:53:53;;;;;;;11.32;5.70;;;5.50;80.30;;;;;;5116342;28;20031;-35
2021/04/02 00:56:19;;;;;;;17.38;5.57;;;5.50;80.40;;;;;;5117363;28;20027;-34
2021/04/02 00:58:47;;;;;;;14.93;7.43;;;5.40;80.60;;;;;;5117266;28;20015;-35
2021/04/02 01:01:13;;;;;;;11.13;6.28;;;5.50;80.70;;;;;;5116856;27;20020;-35
2021/04/02 01:03:40;;;;;;;13.27;6.88;;;5.30;81.00;;;;;;5116743;28;20576;-35
2021/04/02 01:06:12;;;;;;;9.60;5.93;;;5.50;80.90;;;;;;5117002;28;20032;-36
2021/04/02 01:08:38;;;;;;;13.75;7.00;;;5.40;80.90;;;;;;5116811;28;20432;-35
2021/04/02 01:11:11;;;;;;;11.05;5.20;;;5.40;80.80;;;;;;5116852;28;20038;-35
2021/04/02 01:13:46;;;;;;;11.50;5.80;;;5.30;81.00;;;;;;5116407;28;20034;-35
2021/04/02 01:16:34;;;;;;;7.25;5.75;;;5.30;81.00;;;;;;5116612;27;20483;-36
2021/04/02 01:19:15;;;;;;;18.48;7.63;;;5.30;81.30;;;;;;5115423;28;20020;-35
2021/04/02 01:21:46;;;;;;;12.93;6.00;;;5.40;81.10;;;;;;5116461;28;20030;-35
2021/04/02 01:24:16;;;;;;;15.43;8.13;;;5.30;81.20;;;;;;5116787;28;20097;-35
2021/04/02 01:27:02;;;;;;;14.05;6.25;;;5.30;81.50;;;;;;5116671;28;20023;-35
2021/04/02 01:29:56;;;;;;;13.50;5.82;;;5.20;81.90;;;;;;5116738;28;20023;-35
2021/04/02 01:32:30;;;;;;;15.13;6.75;;;5.30;81.90;;;;;;5116325;27;20030;-35
2021/04/02 01:35:14;;;;;;;15.05;6.15;;;5.30;81.90;;;;;;5116821;28;20443;-35
2021/04/02 01:37:56;;;;;;;19.75;6.75;;;5.40;81.20;;;;;;5116508;28;20486;-35
2021/04/02 01:40:25;;;;;;;14.82;6.35;;;5.20;81.40;;;;;;5116457;28;20410;-35
2021/04/02 01:42:52;;;;;;;13.85;7.57;;;5.20;81.90;;;;;;5114920;28;20024;-35
2021/04/02 01:45:19;;;;;;;14.38;6.82;;;5.30;81.70;;;;;;5116046;28;20050;-35
2021/04/02 01:47:45;;;;;;;14.48;5.53;;;5.10;82.10;;;;;;5115974;28;20047;-35
2021/04/02 01:50:15;;;;;;;8.77;6.10;;;5.20;82.10;;;;;;5116299;28;20038;-36
2021/04/02 01:52:42;;;;;;;13.75;7.32;;;5.30;81.70;;;;;;5116214;28;20114;-36
2021/04/02 01:55:11;;;;;;;12.13;6.03;;;5.20;81.70;;;;;;5115636;28;20028;-36
2021/04/02 01:57:38;;;;;;;14.23;6.35;;;5.20;81.70;;;;;;5116691;27;20110;-35
2021/04/02 02:00:13;;;;;;;11.90;5.47;;;5.20;81.70;;;;;;5114889;28;20031;-35
2021/04/02 02:02:41;;;;;;;13.55;6.45;;;5.10;81.90;;;;;;5115787;28;20031;-36
2021/04/02 02:05:10;;;;;;;12.25;7.00;;;5.10;81.90;;;;;;5114471;28;20027;-35
2021/04/02 02:07:39;;;;;;;13.00;5.93;;;5.20;81.70;;;;;;5115712;28;20084;-36
2021/04/02 02:10:06;;;;;;;13.60;6.15;;;5.10;82.20;;;;;;5115651;28;20028;-35
2021/04/02 02:12:33;;;;;;;17.80;6.30;;;5.00;82.40;;;;;;5115379;28;20035;-35
2021/04/02 02:15:01;;;;;;;13.73;6.40;;;4.90;82.50;;;;;;5115522;28;20047;-35
2021/04/02 02:17:28;;;;;;;11.65;6.50;;;4.90;82.90;;;;;;5115313;28;20055;-35
2021/04/02 02:19:56;;;;;;;15.43;6.03;;;4.90;82.90;;;;;;5115884;28;20023;-35
2021/04/02 02:22:23;;;;;;;10.32;5.80;;;5.00;82.60;;;;;;5115529;28;20018;-35
2021/04/02 02:24:49;;;;;;;12.48;6.25;;;5.00;82.60;;;;;;5115375;28;20383;-35
2021/04/02 02:27:14;;;;;;;19.88;6.63;;;4.90;82.60;;;;;;5113877;28;20020;-35
2021/04/02 02:29:42;;;;;;;15.98;6.75;;;4.90;82.70;;;;;;5115179;28;20023;-36
2021/04/02 02:32:08;;;;;;;14.75;6.47;;;4.90;82.60;;;;;;5115144;28;20379;-35
2021/04/02 02:34:34;;;;;;;9.48;5.97;;;5.00;82.70;;;;;;5114976;28;20019;-36
2021/04/02 02:37:01;;;;;;;11.45;6.32;;;4.90;82.70;;;;;;5115228;28;20026;-35
2021/04/02 02:39:27;;;;;;;19.33;7.57;;;4.80;83.00;;;;;;5113657;28;20035;-35
2021/04/02 02:41:53;;;;;;;16.45;6.53;;;4.80;83.40;;;;;;5115970;28;20023;-35
2021/04/02 02:44:18;;;;;;;16.20;6.10;;;4.80;82.80;;;;;;5114825;27;20383;-35
2021/04/02 02:46:45;;;;;;;16.38;6.80;;;4.80;83.40;;;;;;5113879;28;20023;-35
2021/04/02 02:49:14;;;;;;;17.80;6.90;;;4.80;83.40;;;;;;5114571;28;20139;-35
2021/04/02 02:51:42;;;;;;;8.07;5.32;;;4.80;83.60;;;;;;5114782;28;20072;-35
2021/04/02 02:54:11;;;;;;;11.73;5.75;;;4.50;83.80;;;;;;5114885;28;20028;-35
2021/04/02 02:56:38;;;;;;;16.02;6.85;;;4.30;85.20;;;;;;5114913;28;20019;-35
2021/04/02 02:59:07;;;;;;;10.45;5.50;;;4.20;85.20;;;;;;5114563;28;20027;-35
2021/04/02 03:01:36;;;;;;;17.27;6.97;;;4.20;85.60;;;;;;5113079;28;20031;-35
2021/04/02 03:04:04;;;;;;;17.55;7.45;;;4.30;85.20;;;;;;5114510;28;20019;-35
2021/04/02 03:06:35;;;;;;;16.13;7.43;;;4.20;85.00;;;;;;5114350;28;20028;-35
2021/04/02 03:09:03;;;;;;;12.07;6.68;;;4.10;85.60;;;;;;5113941;28;20020;-35
2021/04/02 03:11:29;;;;;;;14.15;6.60;;;4.10;85.30;;;;;;5114594;27;20499;-35
2021/04/02 03:13:56;;;;;;;21.60;7.18;;;4.00;85.60;;;;;;5114472;28;20054;-35
2021/04/02 03:16:24;;;;;;;14.43;7.18;;;4.20;85.90;;;;;;5114542;28;20051;-35
2021/04/02 03:18:53;;;;;;;13.45;6.63;;;4.30;85.10;;;;;;5114783;28;20035;-35
2021/04/02 03:21:20;;;;;;;14.25;6.93;;;4.30;84.60;;;;;;5114176;28;20023;-35
2021/04/02 03:23:47;;;;;;;11.80;6.45;;;4.00;85.50;;;;;;5114438;28;20046;-35
2021/04/02 03:26:17;;;;;;;17.15;6.97;;;4.20;85.40;;;;;;5114382;28;20030;-35
2021/04/02 03:28:44;;;;;;;14.32;8.05;;;4.30;85.20;;;;;;5114266;28;20020;-36
2021/04/02 03:31:11;;;;;;;19.30;7.18;;;4.30;85.10;;;;;;5114224;28;20043;-35
2021/04/02 03:33:46;;;;;;;11.52;6.45;;;4.30;84.90;;;;;;5113887;28;20023;-35
2021/04/02 03:36:14;;;;;;;17.58;8.00;;;4.30;84.70;;;;;;5114261;28;20085;-35
2021/04/02 03:38:44;;;;;;;22.00;8.20;;;4.30;84.70;;;;;;5113963;28;20022;-35
2021/04/02 03:41:23;;;;;;;12.57;6.60;;;4.30;85.00;;;;;;5114176;28;20050;-36
2021/04/02 03:43:51;;;;;;;11.82;5.32;;;4.30;84.80;;;;;;5114145;28;20019;-35
2021/04/02 03:46:20;;;;;;;14.40;7.47;;;4.40;84.90;;;;;;5113750;28;20015;-35
2021/04/02 03:48:48;;;;;;;15.50;8.27;;;4.50;84.60;;;;;;5113505;28;20048;-35
2021/04/02 03:51:19;;;;;;;8.73;5.65;;;4.40;84.60;;;;;;5113684;28;20032;-35
2021/04/02 03:53:49;;;;;;;10.32;7.55;;;4.30;84.60;;;;;;5114023;28;20035;-36
2021/04/02 03:56:17;;;;;;;;;;;4.60;84.30;;;;;;5114738;28;20023;-36
2021/04/02 03:58:45;;;;;;;13.43;6.15;;;4.40;84.10;;;;;;5113745;28;19904;-35
2021/04/02 04:01:20;;;;;;;13.90;6.38;;;4.40;84.90;;;;;;5114312;28;20035;-35
2021/04/02 04:03:48;;;;;;;18.35;7.43;;;4.50;84.20;;;;;;5113659;28;20023;-35
2021/04/02 04:06:19;;;;;;;13.18;5.72;;;4.40;84.90;;;;;;5113905;28;20102;-35
2021/04/02 04:08:46;;;;;;;14.68;7.15;;;4.40;84.50;;;;;;5114227;28;20024;-36
2021/04/02 04:11:14;;;;;;;17.52;6.05;;;4.30;84.70;;;;;;5114041;28;20050;-36
2021/04/02 04:13:41;;;;;;;21.15;8.13;;;4.30;84.70;;;;;;5113629;28;20084;-35
2021/04/02 04:16:10;;;;;;;15.40;5.35;;;4.20;85.00;;;;;;5113781;28;20065;-35
2021/04/02 04:18:36;;;;;;;15.18;5.75;;;4.30;84.80;;;;;;5115387;28;20011;-35
2021/04/02 04:21:04;;;;;;;8.10;5.05;;;4.20;84.90;;;;;;5117896;28;20020;-35
2021/04/02 04:23:32;;;;;;;11.75;5.28;;;4.00;85.50;;;;;;5117690;28;20027;-35
2021/04/02 04:25:59;;;;;;;17.10;6.03;;;4.10;85.70;;;;;;5118119;28;20108;-39
2021/04/02 04:28:27;;;;;;;15.40;5.65;;;4.30;85.10;;;;;;5117707;28;20042;-36
2021/04/02 04:30:56;;;;;;;13.23;5.35;;;4.20;85.00;;;;;;5117968;28;20040;-36
2021/04/02 04:33:24;;;;;;;12.88;5.63;;;4.30;84.70;;;;;;5117821;28;20026;-36
2021/04/02 04:35:52;;;;;;;16.67;6.28;;;4.30;84.60;;;;;;5117895;28;20425;-36
2021/04/02 04:38:19;;;;;;;15.88;5.32;;;4.30;84.80;;;;;;5117597;28;20015;-36
2021/04/02 04:40:46;;;;;;;15.15;5.03;;;4.40;84.00;;;;;;5117719;28;20028;-41
2021/04/02 04:43:14;;;;;;;15.85;6.13;;;4.40;84.30;;;;;;5117527;28;20356;-36
2021/04/02 04:45:40;;;;;;;15.57;6.20;;;4.30;85.20;;;;;;5117622;28;20069;-36
2021/04/02 04:48:06;;;;;;;12.02;5.20;;;4.30;85.00;;;;;;5117237;28;20077;-36
2021/04/02 04:50:32;;;;;;;14.27;5.40;;;4.20;85.80;;;;;;5117813;28;20023;-36
2021/04/02 04:53:03;;;;;;;16.08;5.28;;;4.30;85.80;;;;;;5117788;28;20023;-36
2021/04/02 04:55:33;;;;;;;20.02;6.82;;;4.20;85.90;;;;;;5117551;27;20043;-35
2021/04/02 04:58:00;;;;;;;16.17;6.25;;;4.30;86.20;;;;;;5117787;28;20043;-36
2021/04/02 05:00:31;;;;;;;18.70;7.00;;;4.30;86.00;;;;;;5117493;28;20026;-35
2021/04/02 05:02:57;;;;;;;18.60;6.35;;;4.30;86.10;;;;;;5117029;28;20050;-36
2021/04/02 05:05:33;;;;;;;19.70;7.93;;;4.30;86.60;;;;;;5117650;28;20156;-36
2021/04/02 05:08:01;;;;;;;26.00;8.13;;;4.30;87.30;;;;;;5117043;28;20028;-36
2021/04/02 05:10:30;;;;;;;25.40;8.00;;;4.40;86.60;;;;;;5117021;28;20066;-37
2021/04/02 05:12:57;;;;;;;16.75;8.52;;;4.50;86.80;;;;;;5116923;28;20032;-38
2021/04/02 05:15:24;;;;;;;18.30;7.50;;;4.40;87.20;;;;;;5117048;28;20027;-36
2021/04/02 05:17:51;;;;;;;23.45;8.85;;;4.40;87.30;;;;;;5115467;28;20023;-36
2021/04/02 05:20:27;;;;;;;20.85;7.75;;;4.40;87.30;;;;;;5116868;28;20559;-36
2021/04/02 05:22:53;;;;;;;29.40;9.30;;;4.40;87.40;;;;;;5115600;28;20374;-36
2021/04/02 05:25:18;;;;;;;14.93;8.27;;;4.50;87.10;;;;;;5116720;28;20024;-37
2021/04/02 05:27:44;;;;;;;30.50;9.27;;;4.50;87.10;;;;;;5116412;28;20028;-37
2021/04/02 05:30:11;;;;;;;13.60;6.72;;;4.60;86.90;;;;;;5116086;28;20031;-35
2021/04/02 05:32:36;;;;;;;21.02;8.20;;;4.60;86.80;;;;;;5116226;28;20023;-36
2021/04/02 05:35:02;;;;;;;20.48;8.73;;;4.60;86.70;;;;;;5115208;28;20072;-36
2021/04/02 05:37:28;;;;;;;15.95;7.93;;;4.60;86.80;;;;;;5115249;28;20472;-36
2021/04/02 05:39:53;;;;;;;13.38;6.43;;;4.70;86.40;;;;;;5115047;28;20026;-36
2021/04/02 05:42:23;;;;;;;27.20;9.85;;;4.70;86.40;;;;;;5116112;28;20030;-36
2021/04/02 05:44:52;;;;;;;14.23;7.38;;;4.80;86.30;;;;;;5116103;28;20110;-36
2021/04/02 05:47:18;;;;;;;23.85;9.68;;;4.80;85.80;;;;;;5116151;28;20364;-37
2021/04/02 05:49:49;;;;;;;20.90;8.60;;;4.70;85.90;;;;;;5116213;28;20035;-35
2021/04/02 05:52:16;;;;;;;21.85;9.93;;;4.60;86.80;;;;;;5116571;28;20026;-35
2021/04/02 05:54:44;;;;;;;25.45;8.95;;;4.80;86.30;;;;;;5116233;28;20066;-35
2021/04/02 05:57:10;;;;;;;21.13;8.52;;;4.80;86.20;;;;;;5116149;28;20111;-35
2021/04/02 05:59:41;;;;;;;25.73;9.13;;;5.10;85.30;;;;;;5116163;28;20476;-35
2021/04/02 06:02:08;;;;;;;16.40;8.82;;;4.80;85.60;;;;;;5116265;28;20421;-35
2021/04/02 06:04:35;;;;;;;18.45;9.10;;;4.80;86.30;;;;;;5115925;28;20024;-35
2021/04/02 06:07:00;;;;;;;25.50;8.07;;;4.90;85.70;;;;;;5115588;28;20079;-35
2021/04/02 06:09:27;;;;;;;21.35;8.88;;;4.90;85.60;;;;;;5115648;28;20085;-35
2021/04/02 06:11:52;;;;;;;27.30;11.07;;;5.00;85.40;;;;;;5115493;28;20387;-35
2021/04/02 06:14:20;;;;;;;17.80;8.70;;;4.90;85.60;;;;;;5115591;28;20027;-35
2021/04/02 06:16:49;;;;;;;21.55;10.43;;;4.90;85.50;;;;;;5115340;28;20016;-36
2021/04/02 06:19:15;;;;;;;14.25;9.07;;;5.00;85.60;;;;;;5115650;28;20120;-36
2021/04/02 06:21:57;;;;;;;23.45;9.68;;;5.00;85.50;;;;;;5115176;28;20495;-36
2021/04/02 06:24:43;;;;;;;16.25;8.18;;;4.90;85.60;;;;;;5115217;28;20057;-36
2021/04/02 06:27:10;;;;;;;24.88;9.40;;;4.80;86.00;;;;;;5115143;28;20068;-36
2021/04/02 06:29:41;;;;;;;15.50;7.88;;;4.90;86.00;;;;;;5115470;28;20034;-36
2021/04/02 06:32:08;;;;;;;;;;;5.10;85.30;;;;;;5115759;28;20383;-35
2021/04/02 06:34:33;;;;;;;20.38;7.07;;;5.20;85.20;;;;;;5115136;28;19908;-35
2021/04/02 06:37:01;;;;;;;18.10;8.82;;;5.20;84.80;;;;;;5115475;28;20024;-35
2021/04/02 06:39:32;;;;;;;15.23;7.20;;;5.20;84.90;;;;;;5113853;28;20072;-35
2021/04/02 06:42:01;;;;;;;28.77;10.45;;;5.20;85.00;;;;;;5114061;28;20102;-36
2021/04/02 06:44:30;;;;;;;22.00;8.73;;;5.20;84.90;;;;;;5114927;28;20487;-36
2021/04/02 06:46:58;;;;;;;19.35;9.48;;;5.20;85.20;;;;;;5114436;28;20063;-36
2021/04/02 06:49:24;;;;;;;21.67;9.52;;;5.30;84.50;;;;;;5114786;28;20051;-36
2021/04/02 06:51:51;;;;;;;23.73;9.07;;;5.10;85.20;;;;;;5114910;28;20076;-40
2021/04/02 06:54:19;;;;;;;23.60;9.63;;;5.20;85.20;;;;;;5115773;28;20031;-37
2021/04/02 06:56:50;;;;;;;16.38;8.07;;;5.30;84.70;;;;;;5115073;28;20020;-35
2021/04/02 06:59:19;;;;;;;14.77;9.70;;;5.30;84.70;;;;;;5113399;28;20027;-35
2021/04/02 07:01:48;;;;;;;16.95;9.48;;;5.40;84.00;;;;;;5113289;28;20118;-35
2021/04/02 07:04:15;;;;;;;13.57;7.78;;;5.40;84.30;;;;;;5113554;28;20030;-35
2021/04/02 07:06:41;;;;;;;14.68;8.15;;;5.30;84.10;;;;;;5114631;28;20465;-35
2021/04/02 07:09:10;;;;;;;19.10;10.45;;;5.30;84.80;;;;;;5114411;28;20033;-35
2021/04/02 07:11:38;;;;;;;17.83;7.82;;;5.40;83.60;;;;;;5114234;28;20023;-35
2021/04/02 07:14:07;;;;;;;16.88;8.45;;;5.40;83.80;;;;;;5114544;28;20506;-36
2021/04/02 07:16:33;;;;;;;17.50;6.85;;;5.30;83.90;;;;;;5114283;28;20027;-36
2021/04/02 07:19:01;;;;;;;12.20;5.82;;;5.30;83.70;;;;;;5114257;28;20083;-35
2021/04/02 07:21:32;;;;;;;11.65;6.30;;;5.30;83.40;;;;;;5114547;28;20046;-35
2021/04/02 07:23:58;;;;;;;8.80;5.78;;;5.20;83.40;;;;;;5114185;28;20421;-35
2021/04/02 07:26:24;;;;;;;8.90;6.32;;;5.30;83.10;;;;;;5114153;28;20112;-36
2021/04/02 07:28:50;;;;;;;21.60;9.18;;;5.40;82.60;;;;;;5114208;28;20036;-35
2021/04/02 07:31:19;;;;;;;10.77;6.13;;;5.40;82.30;;;;;;5114180;28;20023;-36
2021/04/02 07:33:47;;;;;;;11.10;6.35;;;5.60;81.90;;;;;;5113980;28;20401;-36
2021/04/02 07:36:13;;;;;;;9.77;5.60;;;5.60;81.40;;;;;;5114064;28;20355;-36
2021/04/02 07:38:40;;;;;;;13.13;5.80;;;5.50;81.30;;;;;;5114725;28;20019;-36
2021/04/02 07:41:10;;;;;;;17.63;7.53;;;5.40;81.80;;;;;;5113838;28;20019;-36
2021/04/02 07:43:49;;;;;;;16.98;6.75;;;5.70;81.00;;;;;;5113881;28;20022;-36
2021/04/02 07:46:18;;;;;;;12.40;5.55;;;5.80;80.40;;;;;;5113171;28;20042;-36
2021/04/02 07:49:08;;;;;;;14.82;6.72;;;5.60;80.80;;;;;;5113660;28;20158;-36
2021/04/02 07:51:48;;;;;;;18.58;6.45;;;5.80;80.50;;;;;;5114192;28;20040;-36
2021/04/02 07:54:36;;;;;;;10.60;6.28;;;5.80;80.40;;;;;;5113270;28;20024;-35
2021/04/02 07:57:14;;;;;;;7.93;5.03;;;5.90;80.30;;;;;;5113506;28;20028;-35
2021/04/02 07:59:40;;;;;;;8.82;5.43;;;5.80;79.90;;;;;;5113712;28;20023;-36
2021/04/02 08:02:09;;;;;;;12.88;6.20;;;5.80;80.00;;;;;;5113944;28;20471;-37
2021/04/02 08:04:42;;;;;;;13.32;5.70;;;5.70;80.40;;;;;;5113876;28;20488;-35
2021/04/02 08:07:29;;;;;;;12.10;6.75;;;5.80;80.30;;;;;;5112417;28;20498;-35
2021/04/02 08:09:55;;;;;;;11.13;7.05;;;5.70;80.60;;;;;;5113743;28;20426;-35
2021/04/02 08:12:22;;;;;;;10.07;6.30;;;5.90;79.80;;;;;;5114622;28;20024;-35
2021/04/02 08:14:50;;;;;;;10.70;6.25;;;5.90;79.90;;;;;;5113413;28;20031;-35
2021/04/02 08:17:23;;;;;;;7.85;5.18;;;6.10;79.50;;;;;;5114182;28;20019;-35
2021/04/02 08:19:49;;;;;;;9.98;6.95;;;6.00;79.60;;;;;;5113701;28;20030;-37
2021/04/02 08:22:17;;;;;;;12.95;6.80;;;5.90;79.50;;;;;;5113724;28;20475;-37
2021/04/02 08:24:45;;;;;;;11.50;6.00;;;6.00;79.20;;;;;;5113411;28;20051;-36
2021/04/02 08:27:11;;;;;;;18.55;7.05;;;6.10;79.10;;;;;;5113417;28;20028;-37
2021/04/02 08:29:40;;;;;;;12.27;6.47;;;6.20;78.80;;;;;;5113225;28;20107;-36
2021/04/02 08:32:16;;;;;;;9.90;6.72;;;6.30;78.20;;;;;;5095704;28;20073;-37
2021/04/02 08:34:43;;;;;;;11.15;6.97;;;6.50;77.40;;;;;;5113689;28;20024;-36
2021/04/02 08:37:16;;;;;;;9.70;6.93;;;6.40;78.00;;;;;;5113078;28;20020;-36
2021/04/02 08:39:42;;;;;;;11.32;6.55;;;6.50;77.80;;;;;;5113206;28;20028;-35
2021/04/02 08:42:12;;;;;;;19.80;6.97;;;6.30;78.00;;;;;;5113329;28;20102;-36
2021/04/02 08:44:43;;;;;;;9.63;6.18;;;6.30;78.10;;;;;;5112922;28;20111;-36
2021/04/02 08:47:13;;;;;;;12.30;6.25;;;6.50;77.10;;;;;;5111607;28;20023;-36
2021/04/02 08:49:59;;;;;;;13.45;5.60;;;6.60;76.70;;;;;;5112950;28;20073;-36
2021/04/02 08:52:27;;;;;;;11.80;5.93;;;6.70;75.60;;;;;;5112879;28;20502;-36
2021/04/02 08:55:06;;;;;;;10.88;7.18;;;6.30;76.60;;;;;;5113851;28;20349;-36
2021/04/02 08:57:33;;;;;;;11.65;5.60;;;6.30;77.10;;;;;;5113723;28;20027;-37
2021/04/02 09:00:01;;;;;;;14.43;6.22;;;6.20;77.50;;;;;;5113080;28;20030;-35
2021/04/02 09:02:29;;;;;;;9.55;6.18;;;6.30;77.10;;;;;;5113073;28;20464;-36
2021/04/02 09:04:56;;;;;;;12.07;5.80;;;6.30;77.30;;;;;;5095028;28;20058;-35
2021/04/02 09:07:25;;;;;;;11.63;5.28;;;6.40;77.10;;;;;;5115638;28;20028;-35
2021/04/02 09:09:51;;;;;;;16.63;6.53;;;6.50;76.80;;;;;;5115331;28;20024;-35
2021/04/02 09:12:20;;;;;;;9.25;5.55;;;6.70;76.20;;;;;;5117354;28;20031;-36
2021/04/02 09:14:48;;;;;;;17.15;6.75;;;6.80;75.80;;;;;;5116765;28;20471;-36
2021/04/02 09:17:19;;;;;;;9.38;6.53;;;6.90;75.20;;;;;;5116875;28;20093;-36
2021/04/02 09:19:46;;;;;;;16.38;7.97;;;6.80;75.20;;;;;;5115483;28;20089;-35
2021/04/02 09:22:13;;;;;;;15.27;7.60;;;6.60;75.70;;;;;;5116873;28;20027;-35
2021/04/02 09:24:40;;;;;;;15.85;8.02;;;6.40;76.10;;;;;;5116875;28;20024;-35
2021/04/02 09:27:21;;;;;;;13.18;7.78;;;6.60;75.70;;;;;;5116718;28;20015;-34
2021/04/02 09:29:48;;;;;;;11.95;6.30;;;6.60;75.30;;;;;;5116431;28;20023;-35
2021/04/02 09:32:14;;;;;;;14.57;8.40;;;6.80;75.50;;;;;;5116258;28;20043;-36
2021/04/02 09:34:40;;;;;;;13.30;7.07;;;6.80;75.20;;;;;;5116097;28;20065;-36
2021/04/02 09:37:07;;;;;;;12.65;6.93;;;6.70;75.10;;;;;;5116333;28;20027;-35
2021/04/02 09:39:38;;;;;;;12.82;7.95;;;6.90;74.70;;;;;;5114346;28;20031;-36
2021/04/02 09:42:05;;;;;;;12.57;8.25;;;7.00;74.00;;;;;;5114712;28;20056;-35
2021/04/02 09:44:33;;;;;;;16.92;7.18;;;6.80;74.40;;;;;;5114394;28;20028;-36
2021/04/02 09:47:12;;;;;;;14.63;7.65;;;7.00;74.00;;;;;;5115859;28;20043;-35
2021/04/02 09:49:39;;;;;;;12.25;7.95;;;6.90;73.80;;;;;;5115801;28;20068;-37
2021/04/02 09:52:07;;;;;;;12.07;6.93;;;6.80;74.30;;;;;;5116402;28;20031;-37
2021/04/02 09:54:34;;;;;;;17.25;9.45;;;6.80;74.70;;;;;;5116107;28;20031;-35
2021/04/02 09:57:07;;;;;;;14.65;8.88;;;7.00;74.10;;;;;;5115916;28;20020;-35
2021/04/02 09:59:34;;;;;;;22.75;9.75;;;7.00;74.20;;;;;;5115923;28;20024;-35
2021/04/02 10:02:00;;;;;;;15.63;9.00;;;7.10;73.90;;;;;;5115798;28;20089;-36
2021/04/02 10:04:26;;;;;;;16.35;7.45;;;7.00;73.60;;;;;;5115933;28;20023;-37
2021/04/02 10:06:52;;;;;;;12.10;7.97;;;7.10;74.10;;;;;;5116354;28;20032;-41
2021/04/02 10:09:18;;;;;;;24.60;8.43;;;7.20;73.30;;;;;;5115622;28;20077;-36
2021/04/02 10:11:50;;;;;;;14.00;6.53;;;7.30;72.10;;;;;;5114420;28;20027;-35
2021/04/02 10:14:19;;;;;;;13.48;6.28;;;7.40;71.20;;;;;;5115853;28;20502;-36
2021/04/02 10:16:48;;;;;;;10.80;6.80;;;7.60;70.60;;;;;;5115383;28;20090;-35
2021/04/02 10:19:15;;;;;;;11.27;7.40;;;7.50;70.10;;;;;;5115483;28;20023;-36
2021/04/02 10:21:41;;;;;;;22.77;11.23;;;7.70;69.90;;;;;;5115275;28;20047;-36
2021/04/02 10:24:07;;;;;;;12.10;8.15;;;7.70;68.80;;;;;;5115334;28;20107;-36
2021/04/02 10:26:34;;;;;;;15.23;8.05;;;7.70;68.50;;;;;;5115469;28;20028;-37
2021/04/02 10:28:59;;;;;;;11.75;8.05;;;7.40;69.30;;;;;;5113925;28;20034;-36
2021/04/02 10:31:25;;;;;;;11.88;7.45;;;7.30;69.70;;;;;;5115234;28;20028;-36
2021/04/02 10:33:51;;;;;;;13.93;7.93;;;7.30;71.00;;;;;;5115127;28;20046;-37
2021/04/02 10:36:17;;;;;;;8.48;6.50;;;7.50;69.60;;;;;;5114842;28;20024;-38
2021/04/02 10:38:42;;;;;;;11.27;6.90;;;7.50;69.10;;;;;;5114930;27;20061;-35
2021/04/02 10:41:09;;;;;;;13.02;6.30;;;7.60;69.20;;;;;;5114955;28;20409;-35
2021/04/02 10:43:34;;;;;;;8.23;6.57;;;7.80;69.30;;;;;;5115394;28;20031;-36
2021/04/02 10:46:01;;;;;;;11.02;6.25;;;7.50;69.80;;;;;;5115462;28;20043;-36
2021/04/02 10:48:27;;;;;;;10.85;6.82;;;7.70;69.30;;;;;;5114755;28;20388;-36
2021/04/02 10:50:53;;;;;;;10.20;6.20;;;7.80;68.90;;;;;;5114826;28;20035;-36
2021/04/02 10:53:19;;;;;;;16.83;6.75;;;7.50;69.00;;;;;;5114902;28;20035;-36
2021/04/02 10:55:45;;;;;;;11.68;5.88;;;7.50;68.60;;;;;;5115210;27;20530;-37
2021/04/02 10:58:12;;;;;;;12.35;6.78;;;7.40;69.00;;;;;;5115609;28;20145;-36
2021/04/02 11:00:39;;;;;;;15.88;8.15;;;7.80;67.80;;;;;;5113238;28;20077;-36
2021/04/02 11:03:05;;;;;;;14.52;6.55;;;7.90;66.90;;;;;;5114959;28;20074;-35
2021/04/02 11:05:32;;;;;;;6.70;5.35;;;7.90;66.70;;;;;;5114791;28;20030;-35
2021/04/02 11:07:58;;;;;;;7.72;4.20;;;7.90;67.40;;;;;;5114500;28;20028;-36
2021/04/02 11:10:25;;;;;;;11.40;5.32;;;8.20;66.00;;;;;;5114689;28;20031;-34
2021/04/02 11:12:50;;;;;;;7.03;5.20;;;8.20;66.00;;;;;;5113325;28;20036;-35
2021/04/02 11:15:18;;;;;;;12.07;5.88;;;8.20;65.60;;;;;;5114555;28;20027;-36
2021/04/02 11:17:45;;;;;;;8.95;5.07;;;8.30;64.60;;;;;;5114462;28;20471;-36
2021/04/02 11:20:12;;;;;;;8.13;5.13;;;8.10;64.20;;;;;;5114238;28;20024;-35
2021/04/02 11:22:38;;;;;;;10.40;5.47;;;8.20;64.90;;;;;;5114345;28;20023;-36
2021/04/02 11:25:06;;;;;;;8.23;4.25;;;8.30;64.10;;;;;;5114458;28;20149;-35
2021/04/02 11:27:32;;;;;;;14.55;5.85;;;8.30;64.50;;;;;;5112857;28;20023;-35
2021/04/02 11:29:58;;;;;;;6.05;4.93;;;8.50;63.80;;;;;;5113103;28;20352;-35
2021/04/02 11:32:24;;;;;;;19.23;5.53;;;8.30;63.80;;;;;;5114146;28;20026;-38
2021/04/02 11:34:50;;;;;;;10.00;5.22;;;8.20;63.60;;;;;;5113760;28;20027;-36
2021/04/02 11:37:16;;;;;;;11.77;4.90;;;8.50;62.70;;;;;;5113876;28;20383;-35
2021/04/02 11:39:42;;;;;;;6.13;4.20;;;8.90;61.40;;;;;;5114248;28;20016;-36
2021/04/02 11:42:08;;;;;;;10.52;4.05;;;9.10;60.90;;;;;;5114188;28;20027;-36
2021/04/02 11:44:34;;;;;;;10.63;4.45;;;9.10;60.20;;;;;;5112876;28;20058;-35
2021/04/02 11:47:00;;;;;;;5.03;3.80;;;9.40;59.40;;;;;;5113852;28;20324;-36
2021/04/02 11:49:25;;;;;;;10.68;4.15;;;9.50;59.10;;;;;;5113584;28;20047;-36
2021/04/02 11:51:51;;;;;;;8.80;4.93;;;9.10;60.50;;;;;;5112509;28;20020;-37
2021/04/02 11:54:17;;;;;;;13.98;4.32;;;9.60;58.80;;;;;;5114101;28;20513;-35
2021/04/02 11:56:43;;;;;;;7.38;3.58;;;9.40;58.20;;;;;;5113853;28;20028;-37
2021/04/02 11:59:09;;;;;;;11.90;4.20;;;8.80;59.70;;;;;;5113482;28;20019;-36
2021/04/02 12:01:35;;;;;;;11.55;3.90;;;9.30;58.80;;;;;;5113767;28;20020;-35
2021/04/02 12:04:00;;;;;;;6.80;2.90;;;9.80;56.30;;;;;;5113417;28;20027;-37
2021/04/02 12:06:26;;;;;;;4.78;2.85;;;9.80;55.60;;;;;;5113719;28;20097;-37
2021/04/02 12:08:52;;;;;;;8.93;3.42;;;9.40;55.30;;;;;;5114172;28;20027;-36
2021/04/02 12:11:17;;;;;;;8.65;3.38;;;9.10;56.60;;;;;;5113850;28;20035;-36
2021/04/02 12:13:43;;;;;;;10.88;3.00;;;9.20;55.70;;;;;;5113720;28;20032;-37
2021/04/02 12:16:09;;;;;;;6.15;2.95;;;9.10;55.80;;;;;;5113899;28;20027;-37
2021/04/02 12:18:35;;;;;;;7.65;3.10;;;9.10;55.10;;;;;;5113661;28;20027;-36
2021/04/02 12:21:00;;;;;;;13.43;3.00;;;9.30;54.90;;;;;;5112260;28;20023;-37
2021/04/02 12:23:26;;;;;;;16.38;3.05;;;9.30;53.40;;;;;;5113820;28;20382;-36
2021/04/02 12:25:52;;;;;;;8.25;2.60;;;9.40;53.40;;;;;;5113488;28;20043;-35
2021/04/02 12:28:18;;;;;;;4.97;1.52;;;9.50;53.30;;;;;;5113213;28;20050;-35
2021/04/02 12:30:44;;;;;;;8.27;2.53;;;9.50;53.10;;;;;;5113509;28;20023;-35
2021/04/02 12:33:10;;;;;;;9.85;2.25;;;8.90;54.60;;;;;;5113179;28;20051;-35
2021/04/02 12:35:36;;;;;;;13.75;3.22;;;8.40;55.50;;;;;;5111827;28;20379;-35
2021/04/02 12:38:08;;;;;;;8.95;3.88;;;8.80;53.60;;;;;;5113137;28;20024;-35
2021/04/02 12:40:34;;;;;;;10.48;2.80;;;9.00;53.30;;;;;;5116180;28;20463;-35
2021/04/02 12:43:00;;;;;;;6.45;2.65;;;8.80;54.20;;;;;;5117210;28;20024;-35
2021/04/02 12:45:25;;;;;;;7.10;2.42;;;9.00;54.10;;;;;;5115836;28;20026;-36
2021/04/02 12:47:51;;;;;;;5.65;2.95;;;9.20;54.30;;;;;;5115707;28;20120;-35
2021/04/02 12:50:22;;;;;;;6.40;2.50;;;9.20;54.40;;;;;;5117096;28;20016;-35
2021/04/02 12:52:48;;;;;;;;;;;9.50;53.20;;;;;;5117220;28;20031;-35